SXS4RM LTAI-EDDC
Flight info
| Callsign | SXS4RM |
|---|---|
| Flight time | N/A |
| Altitude | 38000 |
| Route | EKNUD UQ26 BKZ DCT IBLAX DCT RASUB DCT BUDOP DCT FOGRE DCT PATAK DCT HDO M748 ESLOR Y621 GARKI |
| Aircraft | B38M/M-SDE1FGHILORVWXY/HB1 |
Departure
| Time | N/A |
|---|---|
| Airport | Antalya International Airport (LTAI) |
Arrival
| Time | 2026-05-04 16:55 |
|---|---|
| Airport | Dresden Airport (EDDC) |
| Time | Latitude | Longitude | Altitude | Speed | Heading |
|---|---|---|---|---|---|
| 2026-05-04 16:16 | 48.83350 | 17.94527 | 38001 ft | 430 kts | 312° |
| 2026-05-04 16:17 | 48.87481 | 17.87936 | 37998 ft | 432 kts | 312° |
| 2026-05-04 16:18 | 48.95719 | 17.74735 | 37997 ft | 433 kts | 312° |
| 2026-05-04 16:19 | 49.06051 | 17.58087 | 37993 ft | 432 kts | 312° |
| 2026-05-04 16:20 | 49.16363 | 17.41361 | 37993 ft | 433 kts | 312° |
| 2026-05-04 16:22 | 49.26661 | 17.24551 | 37975 ft | 433 kts | 312° |
| 2026-05-04 16:23 | 49.38939 | 17.04361 | 37981 ft | 431 kts | 311° |
| 2026-05-04 16:25 | 49.51178 | 16.84078 | 37971 ft | 432 kts | 311° |
| 2026-05-04 16:26 | 49.65347 | 16.60394 | 37975 ft | 429 kts | 310° |
| 2026-05-04 16:28 | 49.75424 | 16.43416 | 37973 ft | 429 kts | 310° |
| 2026-05-04 16:29 | 49.89491 | 16.19526 | 37973 ft | 430 kts | 310° |
| 2026-05-04 16:31 | 49.99536 | 16.02330 | 37967 ft | 431 kts | 310° |
| 2026-05-04 16:32 | 50.11577 | 15.81563 | 37943 ft | 431 kts | 309° |
| 2026-05-04 16:33 | 50.15580 | 15.74623 | 37739 ft | 429 kts | 309° |
| 2026-05-04 16:33 | 50.19578 | 15.67671 | 36027 ft | 428 kts | 309° |
| 2026-05-04 16:34 | 50.23538 | 15.60767 | 34771 ft | 425 kts | 309° |
| 2026-05-04 16:34 | 50.25510 | 15.57323 | 34051 ft | 426 kts | 309° |
| 2026-05-04 16:35 | 50.31446 | 15.46926 | 31733 ft | 428 kts | 309° |
| 2026-05-04 16:35 | 50.37277 | 15.36669 | 30155 ft | 415 kts | 309° |
| 2026-05-04 16:36 | 50.39199 | 15.33281 | 29507 ft | 417 kts | 309° |
| 2026-05-04 16:36 | 50.43066 | 15.26447 | 28352 ft | 419 kts | 309° |
| 2026-05-04 16:37 | 50.46909 | 15.19639 | 27257 ft | 415 kts | 309° |
| 2026-05-04 16:37 | 50.48815 | 15.16255 | 26713 ft | 412 kts | 308° |
| 2026-05-04 16:37 | 50.52593 | 15.09535 | 25630 ft | 408 kts | 308° |
| 2026-05-04 16:38 | 50.56325 | 15.02880 | 24575 ft | 404 kts | 308° |
| 2026-05-04 16:39 | 50.61848 | 14.93000 | 22905 ft | 399 kts | 308° |
| 2026-05-04 16:39 | 50.65479 | 14.86484 | 21863 ft | 392 kts | 308° |
| 2026-05-04 16:40 | 50.69047 | 14.80067 | 20891 ft | 386 kts | 308° |
| 2026-05-04 16:40 | 50.72559 | 14.73738 | 19948 ft | 381 kts | 308° |
| 2026-05-04 16:41 | 50.76022 | 14.67480 | 19025 ft | 376 kts | 308° |
| 2026-05-04 16:41 | 50.81149 | 14.58189 | 17280 ft | 378 kts | 308° |
| 2026-05-04 16:42 | 50.86164 | 14.49071 | 15396 ft | 349 kts | 308° |
| 2026-05-04 16:43 | 50.89242 | 14.43458 | 14574 ft | 334 kts | 308° |
| 2026-05-04 16:43 | 50.92310 | 14.37720 | 13757 ft | 343 kts | 300° |
| 2026-05-04 16:43 | 50.93462 | 14.34453 | 13271 ft | 334 kts | 300° |
| 2026-05-04 16:44 | 51.01569 | 14.29427 | 11355 ft | 310 kts | 341° |
| 2026-05-04 16:45 | 51.05668 | 14.27486 | 10181 ft | 305 kts | 339° |
| 2026-05-04 16:46 | 51.11614 | 14.24404 | 8386 ft | 297 kts | 339° |
| 2026-05-04 16:46 | 51.15505 | 14.22335 | 7301 ft | 290 kts | 339° |
| 2026-05-04 16:47 | 51.19208 | 14.20353 | 6670 ft | 270 kts | 339° |
| 2026-05-04 16:47 | 51.22646 | 14.18507 | 6080 ft | 251 kts | 339° |
| 2026-05-04 16:48 | 51.27084 | 14.14846 | 5269 ft | 238 kts | 310° |
| 2026-05-04 16:48 | 51.28195 | 14.12902 | 5051 ft | 234 kts | 310° |
| 2026-05-04 16:49 | 51.30273 | 14.09228 | 4711 ft | 217 kts | 310° |
| 2026-05-04 16:49 | 51.31789 | 14.05247 | 4667 ft | 211 kts | 273° |
| 2026-05-04 16:50 | 51.30712 | 14.01078 | 4431 ft | 209 kts | 228° |
| 2026-05-04 16:50 | 51.28627 | 13.97855 | 4082 ft | 207 kts | 222° |
| 2026-05-04 16:51 | 51.26631 | 13.95036 | 3754 ft | 179 kts | 222° |
| 2026-05-04 16:51 | 51.25711 | 13.93752 | 3570 ft | 174 kts | 221° |
| 2026-05-04 16:51 | 51.23888 | 13.91229 | 3211 ft | 173 kts | 221° |
| 2026-05-04 16:52 | 51.22140 | 13.88810 | 2767 ft | 154 kts | 222° |
| 2026-05-04 16:52 | 51.21346 | 13.87709 | 2583 ft | 151 kts | 222° |
| 2026-05-04 16:53 | 51.19753 | 13.85515 | 2180 ft | 152 kts | 223° |
| 2026-05-04 16:53 | 51.17363 | 13.82215 | 1572 ft | 150 kts | 223° |
| 2026-05-04 16:54 | 51.16584 | 13.81121 | 1342 ft | 148 kts | 224° |
| 2026-05-04 16:55 | 51.13582 | 13.77000 | 713 ft | 108 kts | 221° |
| 2026-05-04 16:55 | 51.12833 | 13.75971 | 716 ft | 40 kts | 220° |
| 2026-05-04 16:56 | 51.12635 | 13.75952 | 713 ft | 13 kts | 130° |
| 2026-05-04 16:56 | 51.12585 | 13.76058 | 714 ft | 4 kts | 106° |
| 2026-05-04 16:57 | 51.12597 | 13.76125 | 716 ft | 10 kts | 48° |
| 2026-05-04 16:57 | 51.12743 | 13.76325 | 716 ft | 17 kts | 40° |
| 2026-05-04 16:58 | 51.12695 | 13.76623 | 715 ft | 3 kts | 181° |
| 2026-05-04 16:58 | 51.12672 | 13.76603 | 715 ft | 5 kts | 217° |
| 2026-05-04 16:59 | 51.12628 | 13.76543 | 717 ft | 0 kts | 221° |